Time;durP1;ratioP1;P1;durP2;ratioP2;P2;SDS_P1;SDS_P2;PMS_P1;PMS_P2;Temp;Humidity;BMP_temperature;BMP_pressure;BME280_temperature;BME280_humidity;BME280_pressure;Samples;Min_cycle;Max_cycle;Signal;HPM_P1;HPM_P2
2023/06/30 00:01:48;;;;;;;10.63;5.20;;;22.10;98.00;;;;;;5011571;28;21005;-68
2023/06/30 00:04:17;;;;;;;8.37;5.40;;;22.00;98.00;;;;;;5013392;28;20454;-68
2023/06/30 00:06:45;;;;;;;8.07;5.00;;;22.00;98.00;;;;;;5015404;28;20459;-68
2023/06/30 00:09:13;;;;;;;14.53;6.07;;;22.00;98.00;;;;;;5015158;28;20479;-68
2023/06/30 00:11:40;;;;;;;9.90;5.30;;;21.90;98.00;;;;;;5015443;28;20450;-68
2023/06/30 00:14:07;;;;;;;24.53;5.70;;;21.90;98.00;;;;;;5013843;28;20529;-68
2023/06/30 00:16:34;;;;;;;11.37;5.20;;;21.90;98.00;;;;;;5015284;28;20491;-68
2023/06/30 00:19:02;;;;;;;7.37;5.23;;;21.80;98.00;;;;;;5015108;28;20466;-68
2023/06/30 00:24:05;;;;;;;8.80;5.40;;;21.90;98.00;;;;;;5024573;22;20510;-67
2023/06/30 00:26:34;;;;;;;8.73;5.10;;;22.00;98.00;;;;;;4994575;28;20463;-67
2023/06/30 00:29:01;;;;;;;9.03;5.47;;;21.90;98.00;;;;;;4994599;28;21028;-67
2023/06/30 00:31:28;;;;;;;9.23;5.30;;;21.70;98.00;;;;;;4994720;28;20460;-67
2023/06/30 00:33:56;;;;;;;9.80;5.57;;;21.60;98.00;;;;;;4994525;28;20486;-67
2023/06/30 00:36:25;;;;;;;7.93;5.10;;;21.50;98.00;;;;;;4994494;28;20456;-67
2023/06/30 00:38:54;;;;;;;8.93;5.43;;;21.50;98.00;;;;;;4994321;28;20464;-67
2023/06/30 00:41:22;;;;;;;8.30;5.10;;;21.40;98.00;;;;;;4993944;28;20530;-67
2023/06/30 00:43:50;;;;;;;7.43;5.07;;;21.30;98.00;;;;;;4994121;28;20468;-67
2023/06/30 00:46:18;;;;;;;13.67;5.67;;;21.30;98.00;;;;;;4994095;28;20449;-67
2023/06/30 00:48:46;;;;;;;9.17;5.33;;;21.30;98.00;;;;;;4994160;28;20481;-67
2023/06/30 00:51:14;;;;;;;8.83;5.37;;;21.30;98.00;;;;;;4994101;28;20463;-67
2023/06/30 00:53:41;;;;;;;8.07;5.03;;;21.20;98.00;;;;;;4994075;28;20507;-67
2023/06/30 00:56:08;;;;;;;9.17;4.77;;;21.20;98.00;;;;;;4993927;28;20452;-67
2023/06/30 00:58:35;;;;;;;9.40;5.10;;;21.30;98.00;;;;;;4994106;28;20460;-67
2023/06/30 01:01:15;;;;;;;8.57;5.53;;;21.40;98.00;;;;;;4994001;28;20461;-67
2023/06/30 01:03:48;;;;;;;8.97;5.57;;;21.50;98.00;;;;;;4993968;28;20471;-67
2023/06/30 01:06:22;;;;;;;7.80;5.40;;;21.50;98.00;;;;;;4993768;28;20465;-67
2023/06/30 01:08:55;;;;;;;10.80;5.70;;;21.40;98.00;;;;;;4993762;28;20483;-67
2023/06/30 01:11:24;;;;;;;8.20;5.30;;;21.50;98.00;;;;;;4993804;28;20973;-67
2023/06/30 01:13:52;;;;;;;8.67;5.40;;;21.40;98.00;;;;;;4993593;28;20453;-67
2023/06/30 01:16:22;;;;;;;8.50;5.20;;;21.50;98.00;;;;;;4993143;28;20458;-67
2023/06/30 01:18:52;;;;;;;7.57;4.87;;;21.40;98.00;;;;;;4993615;28;20467;-67
2023/06/30 01:21:22;;;;;;;9.13;5.83;;;21.30;98.00;;;;;;4993838;28;20483;-67
2023/06/30 01:23:54;;;;;;;8.60;5.10;;;21.30;98.00;;;;;;4993982;28;20909;-67
2023/06/30 01:26:22;;;;;;;7.73;5.10;;;21.10;98.00;;;;;;4993546;28;20825;-67
2023/06/30 01:28:50;;;;;;;9.27;5.37;;;21.00;98.00;;;;;;5010540;28;20479;-67
2023/06/30 01:31:21;;;;;;;11.53;5.70;;;21.10;98.00;;;;;;5013275;28;20463;-67
2023/06/30 01:33:48;;;;;;;7.50;4.80;;;21.20;98.00;;;;;;5011415;28;20479;-67
2023/06/30 01:36:15;;;;;;;8.13;4.93;;;21.20;98.00;;;;;;5012754;28;20455;-67
2023/06/30 01:38:44;;;;;;;10.17;5.30;;;21.10;98.00;;;;;;5012788;28;20597;-67
2023/06/30 01:41:12;;;;;;;8.50;5.43;;;21.00;98.00;;;;;;5011599;28;20462;-67
2023/06/30 01:43:39;;;;;;;8.73;5.10;;;20.90;98.00;;;;;;5012802;28;20467;-67
2023/06/30 01:46:07;;;;;;;8.77;5.10;;;20.80;98.00;;;;;;5012315;28;20872;-67
2023/06/30 01:48:36;;;;;;;9.23;4.83;;;20.70;98.00;;;;;;5012740;28;20483;-67
2023/06/30 01:51:03;;;;;;;8.30;5.07;;;20.80;98.00;;;;;;5012541;28;20466;-67
2023/06/30 01:53:31;;;;;;;8.63;5.53;;;20.70;98.00;;;;;;5012464;28;20456;-67
2023/06/30 01:55:58;;;;;;;9.80;5.43;;;20.60;98.00;;;;;;5012490;28;20455;-67
2023/06/30 01:58:25;;;;;;;8.60;5.30;;;20.70;98.00;;;;;;5012388;28;20538;-67
2023/06/30 02:00:52;;;;;;;10.63;5.70;;;20.80;98.00;;;;;;5011216;28;20456;-67
2023/06/30 02:03:19;;;;;;;9.20;5.07;;;20.70;98.00;;;;;;5012315;28;20455;-67
2023/06/30 02:05:48;;;;;;;13.20;5.80;;;20.70;98.00;;;;;;5012268;28;20463;-67
2023/06/30 02:08:15;;;;;;;9.47;5.70;;;20.60;98.00;;;;;;5012139;28;20487;-67
2023/06/30 02:10:42;;;;;;;9.03;5.40;;;20.40;98.00;;;;;;5012385;28;20767;-67
2023/06/30 02:13:09;;;;;;;7.67;4.87;;;20.40;98.00;;;;;;5012187;28;20880;-67
2023/06/30 02:15:36;;;;;;;9.13;5.33;;;20.30;98.00;;;;;;5012486;28;20456;-67
2023/06/30 02:18:04;;;;;;;8.50;5.40;;;20.30;98.00;;;;;;5012165;28;20470;-67
2023/06/30 02:20:32;;;;;;;8.53;4.93;;;20.20;98.00;;;;;;5011007;28;20487;-67
2023/06/30 02:23:01;;;;;;;10.77;5.77;;;20.10;98.00;;;;;;5011876;28;20467;-67
2023/06/30 02:25:28;;;;;;;9.77;5.67;;;20.20;98.00;;;;;;5011968;28;20463;-67
2023/06/30 02:27:55;;;;;;;11.80;5.67;;;20.30;98.00;;;;;;5010921;28;20463;-67
2023/06/30 02:30:22;;;;;;;9.60;5.87;;;20.30;98.00;;;;;;5011930;28;20460;-67
2023/06/30 02:32:49;;;;;;;9.00;5.57;;;20.10;98.00;;;;;;5012082;28;20487;-67
2023/06/30 02:35:16;;;;;;;9.30;5.20;;;20.00;98.00;;;;;;5010664;28;20452;-67
2023/06/30 02:37:43;;;;;;;11.10;5.40;;;20.20;98.00;;;;;;5010363;28;20451;-66
2023/06/30 02:40:12;;;;;;;8.80;5.43;;;20.40;98.00;;;;;;5011683;28;20528;-67
2023/06/30 02:42:39;;;;;;;9.20;5.50;;;20.30;98.00;;;;;;5011649;28;20452;-67
2023/06/30 02:45:07;;;;;;;12.23;5.73;;;20.20;98.00;;;;;;5010627;28;20530;-67
2023/06/30 02:47:35;;;;;;;9.70;5.07;;;20.10;98.00;;;;;;5011231;28;20800;-67
2023/06/30 02:50:02;;;;;;;9.90;5.40;;;20.00;98.00;;;;;;5011502;28;20494;-67
2023/06/30 02:52:29;;;;;;;9.93;5.23;;;20.00;98.00;;;;;;5011688;28;20455;-67
2023/06/30 02:54:56;;;;;;;10.90;5.30;;;20.00;98.00;;;;;;5011506;28;20463;-67
2023/06/30 02:57:26;;;;;;;11.97;5.80;;;20.20;98.00;;;;;;5011423;28;20972;-67
2023/06/30 02:59:52;;;;;;;11.07;6.53;;;20.40;98.00;;;;;;5011620;28;20460;-67
2023/06/30 03:02:20;;;;;;;7.97;5.63;;;20.60;98.00;;;;;;5011480;28;20459;-67
2023/06/30 03:04:47;;;;;;;10.33;5.50;;;20.60;98.00;;;;;;5011501;28;20470;-67
2023/06/30 03:07:17;;;;;;;8.00;5.20;;;20.50;98.00;;;;;;5011424;28;20805;-67
2023/06/30 03:09:45;;;;;;;9.33;5.23;;;20.40;98.00;;;;;;5011606;28;20566;-67
2023/06/30 03:12:12;;;;;;;13.00;6.90;;;20.30;98.00;;;;;;5011613;28;20460;-67
2023/06/30 03:14:40;;;;;;;14.27;7.00;;;20.20;98.00;;;;;;5011402;28;20455;-67
2023/06/30 03:17:07;;;;;;;12.50;6.17;;;20.10;98.00;;;;;;5011138;28;20491;-67
2023/06/30 03:19:34;;;;;;;9.37;5.83;;;20.00;98.00;;;;;;5011319;28;20475;-67
2023/06/30 03:22:03;;;;;;;19.53;5.37;;;20.00;98.00;;;;;;5011009;28;20459;-67
2023/06/30 03:24:33;;;;;;;11.33;6.00;;;19.90;98.00;;;;;;5011331;28;20456;-67
2023/06/30 03:27:00;;;;;;;9.03;5.40;;;19.90;98.00;;;;;;5011221;28;20456;-67
2023/06/30 03:29:27;;;;;;;8.20;5.20;;;19.90;98.00;;;;;;5011406;28;20491;-67
2023/06/30 03:31:56;;;;;;;10.43;5.43;;;20.00;98.00;;;;;;5011265;28;20454;-67
2023/06/30 03:34:23;;;;;;;10.03;5.20;;;20.00;98.00;;;;;;5010747;28;20468;-67
2023/06/30 03:36:50;;;;;;;9.20;5.43;;;19.90;98.00;;;;;;5011360;28;20525;-67
2023/06/30 03:39:17;;;;;;;11.00;5.63;;;19.90;98.00;;;;;;5013219;28;20459;-67
2023/06/30 03:41:45;;;;;;;8.53;5.23;;;19.90;98.00;;;;;;5015008;28;20877;-67
2023/06/30 03:44:13;;;;;;;10.50;6.20;;;19.90;98.00;;;;;;5014878;28;20459;-67
2023/06/30 03:46:42;;;;;;;8.20;5.40;;;19.90;98.00;;;;;;5014923;28;20451;-67
2023/06/30 03:49:10;;;;;;;7.63;5.40;;;19.90;98.00;;;;;;5013000;28;20828;-67
2023/06/30 03:51:37;;;;;;;9.90;5.73;;;19.90;98.00;;;;;;5014928;28;20451;-67
2023/06/30 03:54:04;;;;;;;8.57;5.17;;;19.90;98.00;;;;;;5014631;28;20451;-67
2023/06/30 03:56:31;;;;;;;8.40;5.37;;;19.90;98.00;;;;;;5014761;28;20505;-67
2023/06/30 03:58:59;;;;;;;11.00;5.23;;;20.10;98.00;;;;;;5014635;28;20513;-67
2023/06/30 04:01:26;;;;;;;9.27;5.30;;;20.10;98.00;;;;;;5013586;28;20456;-67
2023/06/30 04:03:53;;;;;;;8.70;5.57;;;20.10;98.00;;;;;;5014770;28;20483;-67
2023/06/30 04:06:22;;;;;;;9.53;5.60;;;20.20;98.00;;;;;;5013455;28;20455;-67
2023/06/30 04:08:49;;;;;;;10.87;5.73;;;20.20;98.00;;;;;;5014470;28;20475;-67
2023/06/30 04:11:16;;;;;;;8.67;5.60;;;20.20;98.00;;;;;;5014690;28;20451;-67
2023/06/30 04:13:43;;;;;;;10.90;5.07;;;20.30;98.00;;;;;;5014318;28;20498;-67
2023/06/30 04:16:10;;;;;;;8.47;5.60;;;20.30;98.00;;;;;;5014440;28;20694;-67
2023/06/30 04:18:37;;;;;;;8.30;5.10;;;20.50;98.00;;;;;;5014329;28;20820;-67
2023/06/30 04:21:04;;;;;;;12.50;6.23;;;20.40;98.00;;;;;;5014240;28;20459;-67
2023/06/30 04:23:33;;;;;;;12.67;5.33;;;20.30;98.00;;;;;;5012774;28;20474;-67
2023/06/30 04:26:00;;;;;;;9.20;5.20;;;20.10;98.00;;;;;;5014184;28;20463;-67
2023/06/30 04:28:27;;;;;;;9.60;5.60;;;20.20;98.00;;;;;;5014074;28;20533;-67
2023/06/30 04:30:54;;;;;;;11.60;5.90;;;20.30;98.00;;;;;;5013974;28;20459;-67
2023/06/30 04:33:21;;;;;;;9.50;5.70;;;20.40;98.00;;;;;;5014024;28;20459;-67
2023/06/30 04:35:48;;;;;;;13.80;6.50;;;20.40;98.00;;;;;;5013935;28;20451;-67
2023/06/30 04:38:15;;;;;;;12.40;5.90;;;20.40;98.00;;;;;;5014072;28;20958;-67
2023/06/30 04:40:44;;;;;;;8.97;5.77;;;20.40;98.00;;;;;;5013902;28;20455;-67
2023/06/30 04:43:12;;;;;;;11.90;5.87;;;20.40;98.00;;;;;;5013858;28;20455;-67
2023/06/30 04:45:39;;;;;;;11.13;6.00;;;20.50;98.00;;;;;;5013183;28;20502;-67
2023/06/30 04:48:07;;;;;;;10.37;6.10;;;20.50;98.00;;;;;;5013757;28;20458;-67
2023/06/30 04:50:34;;;;;;;11.77;6.37;;;20.70;98.00;;;;;;5012833;28;20505;-67
2023/06/30 04:53:01;;;;;;;9.63;5.93;;;20.80;98.00;;;;;;5013610;28;20462;-67
2023/06/30 04:55:28;;;;;;;10.13;6.20;;;21.00;98.00;;;;;;5013840;28;20463;-67
2023/06/30 04:57:57;;;;;;;9.57;5.90;;;21.00;98.00;;;;;;5013985;28;20455;-67
2023/06/30 05:00:24;;;;;;;9.60;5.97;;;21.00;98.00;;;;;;5013782;28;20456;-67
2023/06/30 05:02:51;;;;;;;11.43;7.20;;;20.80;98.00;;;;;;5013447;28;20958;-67
2023/06/30 05:05:18;;;;;;;12.00;6.60;;;20.70;98.00;;;;;;5013603;28;20452;-66
2023/06/30 05:07:46;;;;;;;12.00;6.33;;;20.50;98.00;;;;;;5013689;28;20470;-67
2023/06/30 05:10:13;;;;;;;10.70;5.90;;;20.40;98.00;;;;;;5013320;28;20483;-67
2023/06/30 05:12:40;;;;;;;8.63;5.80;;;20.40;98.00;;;;;;5013560;28;20455;-67
2023/06/30 05:15:10;;;;;;;9.80;6.40;;;20.50;98.00;;;;;;5013177;28;20456;-67
2023/06/30 05:17:37;;;;;;;13.30;6.83;;;20.60;98.00;;;;;;5013015;28;20961;-67
2023/06/30 05:20:08;;;;;;;12.60;7.27;;;20.70;98.00;;;;;;5013287;28;20455;-69
2023/06/30 05:22:35;;;;;;;18.20;6.20;;;20.70;98.00;;;;;;5013028;28;20815;-69
2023/06/30 05:25:02;;;;;;;10.47;6.20;;;20.70;98.00;;;;;;5011656;28;20513;-69
2023/06/30 05:27:29;;;;;;;9.80;6.23;;;20.70;98.00;;;;;;5013096;28;20456;-67
2023/06/30 05:29:56;;;;;;;10.70;6.40;;;20.70;98.00;;;;;;5012807;28;21179;-67
2023/06/30 05:32:25;;;;;;;9.10;6.00;;;20.70;98.00;;;;;;5013154;28;20459;-67
2023/06/30 05:34:52;;;;;;;15.10;6.87;;;20.70;98.00;;;;;;5012922;28;20984;-67
2023/06/30 05:37:19;;;;;;;11.07;6.27;;;20.60;98.00;;;;;;5013215;28;20855;-67
2023/06/30 05:39:49;;;;;;;9.17;5.73;;;20.60;98.00;;;;;;5012813;28;20454;-67
2023/06/30 05:42:16;;;;;;;11.00;6.60;;;20.60;98.00;;;;;;5012558;28;20471;-67
2023/06/30 05:44:44;;;;;;;11.40;6.13;;;20.60;98.00;;;;;;5012816;28;20455;-67
2023/06/30 05:47:11;;;;;;;13.77;6.07;;;20.70;98.00;;;;;;5012770;28;20466;-67
2023/06/30 05:49:39;;;;;;;8.60;5.90;;;20.80;98.00;;;;;;5012638;28;20530;-67
2023/06/30 05:52:09;;;;;;;10.10;5.83;;;20.90;98.00;;;;;;5012950;28;20486;-67
2023/06/30 05:54:36;;;;;;;11.57;6.50;;;21.00;98.00;;;;;;5012520;28;20463;-67
2023/06/30 05:57:04;;;;;;;14.97;6.80;;;21.10;98.00;;;;;;5012646;28;20459;-67
2023/06/30 05:59:31;;;;;;;13.47;7.03;;;21.10;98.00;;;;;;5011216;28;20456;-67
2023/06/30 06:01:58;;;;;;;10.00;6.20;;;21.10;98.00;;;;;;5012222;28;20539;-64
2023/06/30 06:04:25;;;;;;;12.40;6.70;;;21.00;98.00;;;;;;5012395;28;21019;-63
2023/06/30 06:06:54;;;;;;;9.60;5.60;;;21.10;98.00;;;;;;5012330;28;20546;-63
2023/06/30 06:09:21;;;;;;;14.40;6.23;;;20.90;98.00;;;;;;5012156;28;20523;-63
2023/06/30 06:11:48;;;;;;;10.33;6.37;;;20.80;98.00;;;;;;5012280;28;20943;-63
2023/06/30 06:14:17;;;;;;;10.60;5.93;;;20.80;98.00;;;;;;5012131;28;20458;-65
2023/06/30 06:16:45;;;;;;;13.20;6.90;;;20.80;98.00;;;;;;5012129;28;20957;-66
2023/06/30 06:19:14;;;;;;;11.60;6.53;;;20.90;98.00;;;;;;5010747;28;20455;-66
2023/06/30 06:21:41;;;;;;;11.60;6.90;;;20.90;98.00;;;;;;5012200;28;20514;-65
2023/06/30 06:24:10;;;;;;;9.50;6.13;;;20.90;98.00;;;;;;5011924;28;20526;-65
2023/06/30 06:26:37;;;;;;;13.97;6.33;;;20.90;98.00;;;;;;5012037;28;20455;-66
2023/06/30 06:29:04;;;;;;;14.47;7.33;;;20.80;98.00;;;;;;5011771;28;20531;-66
2023/06/30 06:31:31;;;;;;;11.50;6.83;;;20.80;98.00;;;;;;5011823;28;20523;-65
2023/06/30 06:33:58;;;;;;;13.40;7.10;;;20.70;98.00;;;;;;5011770;28;20459;-66
2023/06/30 06:36:25;;;;;;;15.70;7.27;;;20.50;98.00;;;;;;5010840;28;20828;-66
2023/06/30 06:38:52;;;;;;;12.90;6.77;;;20.30;98.00;;;;;;5010692;28;20455;-66
2023/06/30 06:41:28;;;;;;;12.67;6.93;;;20.10;98.00;;;;;;5012176;28;20460;-66
2023/06/30 06:43:55;;;;;;;16.40;7.83;;;20.10;98.00;;;;;;5011819;28;20470;-66
2023/06/30 06:46:22;;;;;;;12.50;7.30;;;20.10;98.00;;;;;;5011980;28;20466;-66
2023/06/30 06:48:49;;;;;;;15.07;6.97;;;20.10;98.00;;;;;;5011729;28;20447;-66
2023/06/30 06:51:16;;;;;;;15.50;7.73;;;20.00;98.00;;;;;;5011610;28;20882;-66
2023/06/30 06:53:43;;;;;;;10.77;7.00;;;20.00;98.00;;;;;;5011721;28;20869;-66
2023/06/30 06:56:10;;;;;;;12.03;6.80;;;19.90;98.00;;;;;;5011351;28;20969;-66
2023/06/30 06:58:40;;;;;;;12.23;7.53;;;20.00;98.00;;;;;;5011481;28;20818;-66
2023/06/30 07:01:07;;;;;;;14.27;6.90;;;20.00;98.00;;;;;;5011427;28;20470;-66
2023/06/30 07:03:34;;;;;;;13.30;6.70;;;20.00;98.00;;;;;;5011616;28;20803;-65
2023/06/30 07:06:01;;;;;;;13.93;6.60;;;19.80;98.00;;;;;;5011374;28;20874;-66
2023/06/30 07:08:28;;;;;;;12.13;7.10;;;19.80;98.00;;;;;;5010248;28;20455;-67
2023/06/30 07:10:56;;;;;;;12.23;6.50;;;19.80;98.00;;;;;;5011237;28;20490;-66
2023/06/30 07:13:23;;;;;;;15.00;7.60;;;19.70;98.00;;;;;;5010822;28;20546;-67
2023/06/30 07:15:52;;;;;;;13.40;7.37;;;19.90;98.00;;;;;;5011344;28;20455;-66
2023/06/30 07:18:20;;;;;;;12.67;6.67;;;20.00;98.00;;;;;;5010119;28;20467;-66
2023/06/30 07:20:48;;;;;;;14.47;7.80;;;20.10;98.00;;;;;;5011226;28;20451;-66
2023/06/30 07:23:15;;;;;;;13.13;7.20;;;20.10;98.00;;;;;;4992284;28;20854;-66
2023/06/30 07:25:43;;;;;;;19.03;8.33;;;20.10;98.00;;;;;;4991759;28;20476;-66
2023/06/30 07:28:10;;;;;;;12.60;7.30;;;20.20;98.00;;;;;;4991496;28;20830;-66
2023/06/30 07:30:37;;;;;;;15.43;8.50;;;20.20;98.00;;;;;;4988933;28;20851;-67
2023/06/30 07:33:06;;;;;;;16.93;8.17;;;20.40;98.00;;;;;;4991303;28;20476;-67
2023/06/30 07:35:33;;;;;;;15.90;5.70;;;20.50;98.00;;;;;;4991525;28;20464;-69
2023/06/30 07:38:01;;;;;;;9.40;5.30;;;20.60;98.00;;;;;;4991376;28;20456;-69
2023/06/30 07:40:29;;;;;;;9.43;5.77;;;20.70;98.00;;;;;;4991683;28;20464;-69
2023/06/30 07:43:00;;;;;;;10.50;6.27;;;20.80;98.00;;;;;;4989276;28;20544;-69
2023/06/30 07:45:27;;;;;;;8.93;5.20;;;20.90;98.00;;;;;;4972287;28;20462;-69
2023/06/30 07:47:56;;;;;;;11.13;6.03;;;21.00;98.00;;;;;;4972319;28;20485;-70
2023/06/30 07:50:24;;;;;;;10.83;5.50;;;21.30;98.00;;;;;;4972426;28;20492;-69
2023/06/30 07:52:51;;;;;;;11.67;5.90;;;21.60;98.00;;;;;;4972489;28;20978;-67
2023/06/30 07:55:19;;;;;;;13.23;6.70;;;21.90;98.00;;;;;;4972486;28;20457;-67
2023/06/30 07:57:46;;;;;;;9.60;5.70;;;22.10;98.00;;;;;;4972471;28;20947;-67
2023/06/30 08:00:18;;;;;;;9.60;6.10;;;22.40;98.00;;;;;;4972245;28;20598;-67
2023/06/30 08:02:45;;;;;;;8.97;5.63;;;22.50;98.00;;;;;;4985265;28;20542;-68
2023/06/30 08:05:13;;;;;;;10.40;6.33;;;22.80;98.00;;;;;;4975019;28;20541;-69
2023/06/30 08:07:41;;;;;;;12.40;6.70;;;22.70;98.00;;;;;;4974042;28;20465;-68
2023/06/30 08:10:09;;;;;;;12.97;6.60;;;22.50;98.00;;;;;;4989957;28;20488;-68
2023/06/30 08:12:36;;;;;;;9.27;5.17;;;22.50;98.00;;;;;;4991757;28;21049;-68
2023/06/30 08:15:04;;;;;;;11.70;6.90;;;22.60;98.00;;;;;;4991705;28;20456;-68
2023/06/30 08:17:31;;;;;;;10.03;5.53;;;22.60;98.00;;;;;;4991484;28;20460;-68
2023/06/30 08:19:58;;;;;;;13.80;5.97;;;22.60;98.00;;;;;;4991699;28;20467;-68
2023/06/30 08:22:25;;;;;;;9.47;5.40;;;22.70;98.00;;;;;;4991859;28;20551;-67
2023/06/30 08:24:54;;;;;;;9.20;5.83;;;22.50;98.00;;;;;;4991807;28;20452;-67
2023/06/30 08:27:21;;;;;;;11.63;6.57;;;22.40;98.00;;;;;;4995252;28;20459;-67
2023/06/30 08:29:49;;;;;;;12.40;6.43;;;22.40;98.00;;;;;;4995211;28;20503;-67
2023/06/30 08:32:16;;;;;;;12.60;6.20;;;22.50;98.00;;;;;;4995355;28;20519;-67
2023/06/30 08:34:43;;;;;;;13.50;6.20;;;22.50;98.00;;;;;;4994994;28;20499;-64
2023/06/30 08:37:11;;;;;;;11.80;6.33;;;22.40;98.00;;;;;;4994770;28;20460;-64
2023/06/30 08:39:39;;;;;;;12.37;6.80;;;22.10;98.00;;;;;;4994947;28;20947;-64
2023/06/30 08:42:10;;;;;;;12.37;6.60;;;21.90;98.00;;;;;;4994809;28;20459;-64
2023/06/30 08:44:43;;;;;;;10.47;5.80;;;21.70;98.00;;;;;;4994657;28;20457;-64
2023/06/30 08:47:14;;;;;;;12.27;6.97;;;21.50;98.00;;;;;;4985869;28;20469;-63
2023/06/30 08:49:42;;;;;;;12.37;6.60;;;21.40;98.00;;;;;;4973289;28;20520;-64
2023/06/30 08:52:12;;;;;;;10.77;6.00;;;21.50;98.00;;;;;;4974348;28;20527;-64
2023/06/30 08:54:39;;;;;;;14.40;6.30;;;21.40;98.00;;;;;;4989450;28;20908;-64
2023/06/30 08:57:08;;;;;;;13.80;7.03;;;21.40;98.00;;;;;;4974432;28;20454;-64
2023/06/30 08:59:35;;;;;;;11.30;6.20;;;21.40;98.00;;;;;;4974432;28;20450;-64
2023/06/30 09:02:03;;;;;;;13.87;6.20;;;21.20;98.00;;;;;;4974234;28;20457;-64
2023/06/30 09:04:31;;;;;;;12.87;5.87;;;21.20;98.00;;;;;;4974404;28;20497;-64
2023/06/30 09:07:00;;;;;;;16.07;6.93;;;21.30;98.00;;;;;;4974294;28;20468;-64
2023/06/30 09:09:31;;;;;;;14.63;6.50;;;21.20;98.00;;;;;;4974220;28;20495;-64
2023/06/30 09:11:58;;;;;;;12.43;6.60;;;21.30;98.00;;;;;;4974084;28;21007;-65
2023/06/30 09:14:33;;;;;;;11.70;6.20;;;21.20;98.00;;;;;;4974522;28;20460;-65
2023/06/30 09:17:01;;;;;;;15.67;6.90;;;21.40;98.00;;;;;;4973158;28;20515;-64
2023/06/30 09:19:28;;;;;;;13.77;6.50;;;21.50;98.00;;;;;;4974244;28;20453;-65
2023/06/30 09:21:56;;;;;;;11.87;6.60;;;21.50;98.00;;;;;;4973957;28;20458;-64
2023/06/30 09:24:23;;;;;;;11.30;6.07;;;21.50;98.00;;;;;;4972845;28;20461;-65
2023/06/30 09:26:51;;;;;;;12.23;6.17;;;21.50;98.00;;;;;;4974083;28;20484;-64
2023/06/30 09:29:22;;;;;;;16.53;6.93;;;21.60;98.00;;;;;;4974060;28;20471;-64
2023/06/30 09:31:52;;;;;;;13.37;6.47;;;21.60;98.00;;;;;;4974058;28;21007;-64
2023/06/30 09:34:20;;;;;;;14.30;7.13;;;21.80;98.00;;;;;;4974305;28;20546;-64
2023/06/30 09:36:48;;;;;;;14.80;7.13;;;21.80;98.00;;;;;;4974434;28;21047;-64
2023/06/30 09:39:15;;;;;;;14.27;7.10;;;22.00;98.00;;;;;;4974717;28;20476;-64
2023/06/30 09:41:43;;;;;;;16.83;7.47;;;22.00;98.00;;;;;;4974089;28;20457;-64
2023/06/30 09:44:11;;;;;;;14.60;7.10;;;21.90;98.00;;;;;;4973584;28;21055;-64
2023/06/30 09:46:46;;;;;;;16.20;7.60;;;21.80;98.00;;;;;;4974708;28;20457;-64
2023/06/30 09:49:25;;;;;;;13.67;7.20;;;21.70;98.00;;;;;;4974558;28;20499;-64
2023/06/30 09:51:56;;;;;;;13.10;6.80;;;21.70;98.00;;;;;;4974606;28;20489;-64
2023/06/30 09:54:24;;;;;;;17.87;7.77;;;21.70;98.00;;;;;;4973556;28;20493;-64
2023/06/30 09:56:57;;;;;;;15.80;8.07;;;21.70;98.00;;;;;;4972384;28;20532;-64
2023/06/30 09:59:25;;;;;;;16.27;7.70;;;21.70;98.00;;;;;;4973474;28;20856;-64
2023/06/30 10:01:53;;;;;;;14.90;7.57;;;21.80;98.00;;;;;;4972238;28;20533;-63
2023/06/30 10:04:22;;;;;;;15.00;8.00;;;21.70;98.00;;;;;;4973227;28;20454;-64
2023/06/30 10:06:53;;;;;;;20.07;8.57;;;21.70;98.00;;;;;;4973469;28;20449;-64
2023/06/30 10:09:22;;;;;;;18.73;8.03;;;21.70;98.00;;;;;;4973523;28;20535;-63
2023/06/30 10:11:52;;;;;;;14.70;6.87;;;21.70;98.00;;;;;;4985912;28;20493;-63
2023/06/30 10:14:21;;;;;;;16.60;7.47;;;21.40;98.00;;;;;;4995427;28;21449;-63
2023/06/30 10:16:52;;;;;;;16.50;7.70;;;21.40;98.00;;;;;;4992222;28;20488;-64
2023/06/30 10:19:19;;;;;;;14.57;7.20;;;21.20;98.00;;;;;;4986365;28;20461;-63
2023/06/30 10:21:47;;;;;;;16.40;7.03;;;21.20;98.00;;;;;;4973091;28;20457;-63
2023/06/30 10:24:17;;;;;;;18.53;7.80;;;21.20;98.00;;;;;;4973223;28;20827;-64
2023/06/30 10:26:46;;;;;;;15.43;7.30;;;21.00;98.00;;;;;;4973277;28;20464;-63
2023/06/30 10:29:13;;;;;;;13.47;6.73;;;20.90;98.00;;;;;;4973087;28;20830;-64
2023/06/30 10:31:43;;;;;;;20.40;6.80;;;21.00;98.00;;;;;;4972935;28;20492;-63
2023/06/30 10:34:11;;;;;;;16.43;7.60;;;20.80;98.00;;;;;;4972858;28;20462;-63
2023/06/30 10:36:38;;;;;;;13.67;6.93;;;20.70;98.00;;;;;;4972803;28;20556;-63
2023/06/30 10:39:07;;;;;;;14.33;7.27;;;20.80;98.00;;;;;;4972575;28;20458;-63
2023/06/30 10:41:46;;;;;;;13.40;6.90;;;20.70;98.00;;;;;;4972808;28;20471;-63
2023/06/30 10:44:14;;;;;;;14.63;7.20;;;20.70;98.00;;;;;;4972555;28;20544;-64
2023/06/30 10:46:43;;;;;;;15.10;7.47;;;20.80;98.00;;;;;;4972198;28;20836;-63
2023/06/30 10:49:18;;;;;;;18.93;7.63;;;20.90;98.00;;;;;;4971874;28;20468;-63
2023/06/30 10:51:46;;;;;;;25.13;7.30;;;21.00;98.00;;;;;;4972571;28;20575;-63
2023/06/30 10:54:21;;;;;;;14.27;7.50;;;21.10;98.00;;;;;;4972412;28;20485;-64
2023/06/30 10:56:50;;;;;;;14.57;7.60;;;21.10;98.00;;;;;;4972491;28;20522;-64
2023/06/30 10:59:21;;;;;;;18.37;7.57;;;21.10;98.00;;;;;;4972344;28;20461;-63
2023/06/30 11:02:12;;;;;;;19.23;8.10;;;21.10;98.00;;;;;;4972298;28;20556;-63
2023/06/30 11:04:40;;;;;;;16.07;8.00;;;21.10;98.00;;;;;;4978838;28;20456;-63
2023/06/30 11:07:10;;;;;;;14.30;6.87;;;21.00;98.00;;;;;;5011443;28;20462;-65
2023/06/30 11:09:57;;;;;;;13.90;6.80;;;21.00;98.00;;;;;;5011543;28;20870;-62
2023/06/30 11:12:27;;;;;;;17.53;8.13;;;21.00;98.00;;;;;;5011247;28;20574;-63
2023/06/30 11:14:55;;;;;;;18.07;8.10;;;21.00;98.00;;;;;;5011465;28;20460;-63
2023/06/30 11:17:23;;;;;;;15.10;7.20;;;21.10;98.00;;;;;;5011366;28;20459;-63
2023/06/30 11:20:10;;;;;;;16.47;8.27;;;21.20;98.00;;;;;;5011624;28;20459;-63
2023/06/30 11:22:37;;;;;;;14.60;8.00;;;21.30;98.00;;;;;;5011534;28;20558;-64
2023/06/30 11:25:05;;;;;;;17.60;7.70;;;21.50;98.00;;;;;;5011323;28;20494;-63
2023/06/30 11:27:34;;;;;;;17.10;8.10;;;21.60;98.00;;;;;;5011268;28;20452;-63
2023/06/30 11:30:02;;;;;;;19.00;7.90;;;21.60;98.00;;;;;;5011077;28;20474;-63
2023/06/30 11:32:29;;;;;;;17.30;7.27;;;21.50;98.00;;;;;;5011112;28;20557;-63
2023/06/30 11:34:58;;;;;;;20.10;8.03;;;21.50;98.00;;;;;;5011297;28;21053;-63
2023/06/30 11:37:26;;;;;;;16.00;7.53;;;21.50;98.00;;;;;;5011148;28;20463;-64
2023/06/30 11:39:54;;;;;;;18.43;8.93;;;21.60;98.00;;;;;;5010948;28;20964;-63
2023/06/30 11:42:21;;;;;;;20.07;8.63;;;;;;;;;;5011152;28;20455;-64
2023/06/30 11:44:50;;;;;;;18.03;8.70;;;21.60;98.00;;;;;;5011138;28;20459;-64
2023/06/30 11:47:18;;;;;;;19.93;8.87;;;21.60;98.00;;;;;;5011174;28;20463;-63
2023/06/30 11:49:46;;;;;;;19.63;8.50;;;21.60;98.00;;;;;;5011014;28;20459;-64
2023/06/30 11:52:17;;;;;;;20.00;8.80;;;21.50;98.00;;;;;;5010993;28;20490;-63
2023/06/30 11:54:44;;;;;;;21.60;8.80;;;21.60;98.00;;;;;;5008973;28;20491;-64
2023/06/30 11:57:11;;;;;;;18.13;8.93;;;21.70;98.00;;;;;;5011236;28;20463;-63
2023/06/30 11:59:39;;;;;;;19.30;8.80;;;21.70;98.00;;;;;;5011861;28;20462;-64
2023/06/30 12:02:13;;;;;;;21.83;9.23;;;21.60;98.00;;;;;;5014727;28;20462;-64
2023/06/30 12:04:47;;;;;;;16.73;8.70;;;21.50;98.00;;;;;;5014722;28;20538;-63
2023/06/30 12:07:15;;;;;;;17.70;9.07;;;21.60;98.00;;;;;;5013618;28;20458;-63
2023/06/30 12:09:43;;;;;;;18.70;9.50;;;21.70;98.00;;;;;;5014678;28;20467;-64
2023/06/30 12:12:10;;;;;;;23.07;9.90;;;21.70;98.00;;;;;;5014598;28;20517;-63
2023/06/30 12:14:42;;;;;;;20.73;9.37;;;21.70;98.00;;;;;;5014667;28;20451;-63
2023/06/30 12:17:10;;;;;;;19.60;9.73;;;21.70;98.00;;;;;;5014808;28;20467;-64
2023/06/30 12:19:38;;;;;;;29.43;10.20;;;21.90;98.00;;;;;;5014534;28;20538;-63
2023/06/30 12:22:07;;;;;;;22.63;9.80;;;21.80;98.00;;;;;;5014305;28;20803;-63
2023/06/30 12:24:35;;;;;;;20.43;9.57;;;21.90;98.00;;;;;;5014304;28;20546;-64
2023/06/30 12:27:05;;;;;;;20.07;9.43;;;22.10;98.00;;;;;;5014344;28;20451;-63
2023/06/30 12:29:34;;;;;;;23.53;10.67;;;22.40;98.00;;;;;;5014241;28;20463;-63
2023/06/30 12:32:01;;;;;;;24.03;9.97;;;22.80;98.00;;;;;;5014049;28;21040;-63
2023/06/30 12:34:33;;;;;;;26.47;9.67;;;23.10;98.00;;;;;;5014163;28;20454;-63
2023/06/30 12:37:01;;;;;;;29.67;12.53;;;23.30;98.00;;;;;;5014102;28;20467;-63
2023/06/30 12:39:29;;;;;;;25.67;10.67;;;23.30;98.00;;;;;;5014282;28;20463;-63
2023/06/30 12:41:58;;;;;;;23.43;9.80;;;23.40;98.00;;;;;;5013997;28;20451;-64
2023/06/30 12:44:25;;;;;;;25.63;11.33;;;23.50;98.00;;;;;;5013931;28;20463;-64
2023/06/30 12:47:00;;;;;;;21.43;8.90;;;23.60;98.00;;;;;;5012743;28;20993;-67
2023/06/30 12:49:28;;;;;;;25.03;11.33;;;23.70;98.00;;;;;;5012712;28;20542;-67